createdAt,value
2018-09-25T00:01:44.126Z,10.03
2018-09-25T00:04:17.702Z,9.97
2018-09-25T00:06:51.477Z,8.77
2018-09-25T00:09:25.142Z,8.63
2018-09-25T00:11:58.604Z,15.27
2018-09-25T00:14:32.383Z,10.20
2018-09-25T00:17:06.208Z,12.80
2018-09-25T00:19:39.781Z,7.57
2018-09-25T00:22:13.371Z,13.07
2018-09-25T00:24:47.130Z,9.23
2018-09-25T00:27:20.891Z,8.30
2018-09-25T00:29:54.690Z,13.77
2018-09-25T00:32:28.174Z,19.40
2018-09-25T00:35:01.862Z,28.23
2018-09-25T00:37:35.730Z,15.93
2018-09-25T00:40:09.350Z,14.10
2018-09-25T00:42:43.012Z,9.93
2018-09-25T00:45:16.707Z,10.17
2018-09-25T00:47:50.423Z,8.23
2018-09-25T00:50:24.115Z,9.87
2018-09-25T00:52:57.755Z,7.37
2018-09-25T00:55:31.265Z,7.57
2018-09-25T00:58:05.030Z,6.90
2018-09-25T01:00:38.547Z,10.20
2018-09-25T01:03:12.331Z,7.53
2018-09-25T01:05:46.069Z,10.03
2018-09-25T01:08:19.825Z,5.93
2018-09-25T01:10:53.358Z,11.10
2018-09-25T01:13:26.859Z,7.93
2018-09-25T01:16:00.517Z,6.70
2018-09-25T01:18:34.070Z,8.63
2018-09-25T01:21:07.775Z,7.00
2018-09-25T01:23:41.318Z,10.07
2018-09-25T01:26:14.946Z,6.27
2018-09-25T01:28:48.849Z,12.47
2018-09-25T01:31:22.563Z,7.63
2018-09-25T01:33:56.148Z,7.10
2018-09-25T01:36:29.663Z,8.10
2018-09-25T01:39:03.273Z,10.97
2018-09-25T01:41:37.020Z,7.47
2018-09-25T01:44:10.457Z,9.97
2018-09-25T01:46:57.675Z,10.30
2018-09-25T01:49:31.435Z,9.77
2018-09-25T01:52:05.207Z,9.23
2018-09-25T01:54:38.990Z,9.57
2018-09-25T01:57:12.489Z,10.60
2018-09-25T01:59:46.459Z,10.17
2018-09-25T02:02:20.030Z,13.47
2018-09-25T02:04:53.883Z,9.57
2018-09-25T02:07:27.467Z,10.30
2018-09-25T02:10:01.002Z,10.27
2018-09-25T02:12:34.399Z,11.40
2018-09-25T02:15:07.871Z,15.77
2018-09-25T02:17:41.416Z,14.87
2018-09-25T02:20:15.126Z,12.53
2018-09-25T02:22:48.672Z,10.67
2018-09-25T02:25:22.247Z,13.10
2018-09-25T02:27:55.771Z,8.53
2018-09-25T02:30:29.231Z,14.43
2018-09-25T02:33:02.748Z,17.63
2018-09-25T02:35:36.653Z,11.37
2018-09-25T02:38:10.263Z,14.33
2018-09-25T02:40:43.865Z,13.33
2018-09-25T02:43:17.490Z,12.53
2018-09-25T02:45:51.197Z,15.30
2018-09-25T02:48:24.816Z,15.50
2018-09-25T02:50:58.354Z,15.90
2018-09-25T02:53:31.852Z,20.50
2018-09-25T02:56:05.495Z,17.20
2018-09-25T02:58:39.106Z,17.37
2018-09-25T03:01:12.833Z,14.80
2018-09-25T03:03:46.503Z,16.00
2018-09-25T03:06:20.233Z,20.03
2018-09-25T03:08:53.726Z,14.80
2018-09-25T03:11:27.374Z,19.73
2018-09-25T03:14:00.895Z,20.63
2018-09-25T03:16:34.630Z,19.10
2018-09-25T03:19:08.202Z,18.10
2018-09-25T03:21:41.889Z,22.70
2018-09-25T03:24:15.409Z,16.00
2018-09-25T03:26:49.130Z,23.53
2018-09-25T03:29:22.606Z,17.87
2018-09-25T03:31:56.051Z,16.60
2018-09-25T03:34:29.962Z,17.50
2018-09-25T03:37:03.559Z,19.47
2018-09-25T03:39:37.089Z,19.03
2018-09-25T03:42:11.211Z,22.37
2018-09-25T03:44:44.694Z,16.37
2018-09-25T03:47:18.262Z,21.53
2018-09-25T03:49:51.875Z,17.47
2018-09-25T03:52:25.623Z,20.80
2018-09-25T03:54:59.391Z,21.60
2018-09-25T03:57:33.117Z,18.60
2018-09-25T04:00:06.822Z,22.90
2018-09-25T04:02:40.589Z,20.57
2018-09-25T04:05:14.456Z,19.77
2018-09-25T04:07:47.991Z,20.27
2018-09-25T04:10:21.637Z,19.77
2018-09-25T04:12:55.414Z,20.87
2018-09-25T04:15:29.131Z,22.13
2018-09-25T04:18:02.935Z,21.57
2018-09-25T04:20:36.631Z,22.90
2018-09-25T04:23:10.082Z,22.80
2018-09-25T04:25:43.865Z,22.63
2018-09-25T04:28:17.425Z,21.33
2018-09-25T04:30:50.827Z,28.57
2018-09-25T04:33:24.534Z,23.27
2018-09-25T04:35:58.328Z,21.53
2018-09-25T04:38:31.967Z,23.77
2018-09-25T04:41:05.570Z,23.50
2018-09-25T04:43:39.076Z,20.60
2018-09-25T04:46:12.710Z,24.17
2018-09-25T04:48:46.234Z,24.27
2018-09-25T04:51:19.722Z,23.50
2018-09-25T04:53:53.357Z,23.53
2018-09-25T04:56:26.949Z,25.03
2018-09-25T04:59:00.485Z,24.67
2018-09-25T05:01:34.282Z,25.17
2018-09-25T05:04:08.164Z,25.67
2018-09-25T05:06:41.891Z,29.00
2018-09-25T05:09:15.654Z,21.57
2018-09-25T05:11:49.374Z,25.80
2018-09-25T05:14:24.334Z,25.67
2018-09-25T05:16:58.006Z,22.50
2018-09-25T05:19:31.879Z,27.90
2018-09-25T05:22:05.630Z,24.00
2018-09-25T05:24:39.569Z,24.97
2018-09-25T05:27:13.291Z,24.43
2018-09-25T05:29:47.048Z,26.33
2018-09-25T05:32:20.958Z,26.77
2018-09-25T05:34:54.600Z,25.17
2018-09-25T05:37:28.308Z,24.60
2018-09-25T05:40:01.986Z,24.33
2018-09-25T05:42:35.774Z,28.60
2018-09-25T05:45:09.505Z,27.53
2018-09-25T05:47:43.303Z,24.83
2018-09-25T05:50:17.356Z,26.00
2018-09-25T05:52:52.186Z,26.43
2018-09-25T05:55:27.088Z,27.83
2018-09-25T05:58:01.696Z,28.30
2018-09-25T06:00:36.159Z,27.93
2018-09-25T06:03:11.763Z,25.53
2018-09-25T06:05:46.284Z,23.73
2018-09-25T06:08:19.875Z,28.43
2018-09-25T06:10:53.375Z,30.00
2018-09-25T06:13:27.326Z,25.47
2018-09-25T06:16:01.227Z,30.57
2018-09-25T06:18:35.120Z,28.70
2018-09-25T06:21:08.628Z,22.63
2018-09-25T06:23:42.170Z,25.97
2018-09-25T06:26:15.947Z,29.43
2018-09-25T06:28:49.908Z,24.37
2018-09-25T06:31:23.621Z,22.43
2018-09-25T06:33:57.752Z,23.10
2018-09-25T06:36:31.871Z,21.77
2018-09-25T06:39:05.571Z,21.93
2018-09-25T06:41:39.512Z,28.60
2018-09-25T06:44:13.201Z,21.83
2018-09-25T06:46:46.994Z,22.00
2018-09-25T06:49:20.752Z,24.63
2018-09-25T06:51:54.422Z,22.17
2018-09-25T06:54:28.195Z,22.10
2018-09-25T06:57:01.946Z,22.90
2018-09-25T06:59:35.695Z,21.43
2018-09-25T07:02:09.380Z,20.43
2018-09-25T07:04:43.314Z,22.27
2018-09-25T07:07:17.113Z,17.37
2018-09-25T07:09:51.086Z,21.50
2018-09-25T07:12:24.748Z,19.90
2018-09-25T07:14:58.513Z,19.33
2018-09-25T07:17:32.615Z,20.33
2018-09-25T07:20:06.186Z,18.13
2018-09-25T07:22:40.100Z,19.23
2018-09-25T07:25:13.822Z,21.07
2018-09-25T07:27:47.703Z,18.27
2018-09-25T07:30:21.421Z,19.50
2018-09-25T07:32:55.178Z,19.77
2018-09-25T07:35:29.260Z,19.33
2018-09-25T07:38:03.078Z,20.90
2018-09-25T07:40:38.199Z,19.90
2018-09-25T07:43:11.961Z,17.53
2018-09-25T07:45:45.571Z,16.87
2018-09-25T07:48:19.399Z,18.43
2018-09-25T07:50:53.139Z,15.33
2018-09-25T07:53:27.087Z,16.77
2018-09-25T07:56:00.911Z,15.53
2018-09-25T07:58:34.723Z,16.87
2018-09-25T08:01:08.409Z,17.07
2018-09-25T08:03:42.385Z,14.87
2018-09-25T08:06:16.015Z,15.40
2018-09-25T08:08:49.719Z,16.73
2018-09-25T08:11:23.504Z,18.90
2018-09-25T08:13:57.375Z,16.97
2018-09-25T08:16:31.287Z,14.73
2018-09-25T08:19:05.049Z,16.17
2018-09-25T08:21:38.735Z,18.53
2018-09-25T08:24:12.529Z,13.20
2018-09-25T08:26:46.320Z,17.27
2018-09-25T08:29:19.997Z,12.20
2018-09-25T08:31:53.630Z,13.27
2018-09-25T08:34:27.573Z,17.87
2018-09-25T08:37:01.210Z,13.27
2018-09-25T08:39:35.082Z,17.63
2018-09-25T08:42:08.877Z,13.10
2018-09-25T08:44:42.589Z,12.10
2018-09-25T08:47:16.413Z,10.70
2018-09-25T08:49:51.719Z,12.40
2018-09-25T08:52:25.312Z,9.97
2018-09-25T08:54:59.002Z,15.80
2018-09-25T08:57:32.924Z,13.03
2018-09-25T09:00:06.811Z,11.53
2018-09-25T09:02:40.555Z,12.10
2018-09-25T09:05:14.253Z,13.27
2018-09-25T09:07:48.014Z,10.50
2018-09-25T09:10:21.712Z,10.20
2018-09-25T09:12:55.843Z,12.97
2018-09-25T09:15:30.278Z,42.07
2018-09-25T09:18:04.033Z,30.30
2018-09-25T09:20:38.186Z,24.43
2018-09-25T09:23:12.207Z,17.23
2018-09-25T09:25:46.420Z,10.67
2018-09-25T09:28:20.297Z,14.07
2018-09-25T09:30:54.455Z,18.43
2018-09-25T09:33:28.517Z,27.00
2018-09-25T09:36:02.226Z,15.80
2018-09-25T09:38:36.010Z,14.60
2018-09-25T09:41:09.891Z,9.83
2018-09-25T09:43:43.884Z,12.97
2018-09-25T09:46:17.502Z,12.17
2018-09-25T09:48:50.994Z,9.43
2018-09-25T09:51:24.829Z,7.97
2018-09-25T09:53:58.511Z,11.13
2018-09-25T09:56:32.839Z,9.47
2018-09-25T09:59:07.090Z,7.40
2018-09-25T10:01:40.779Z,8.57
2018-09-25T10:04:14.633Z,9.43
2018-09-25T10:06:48.669Z,11.37
2018-09-25T10:09:22.383Z,8.10
2018-09-25T10:11:56.516Z,7.53
2018-09-25T10:14:30.174Z,8.80
2018-09-25T10:17:03.795Z,7.73
2018-09-25T10:19:37.521Z,11.53
2018-09-25T10:22:11.164Z,9.73
2018-09-25T10:24:44.704Z,8.90
2018-09-25T10:27:22.295Z,7.47
2018-09-25T10:29:56.038Z,8.70
2018-09-25T10:32:30.384Z,8.77
2018-09-25T10:35:04.376Z,4.70
2018-09-25T10:37:37.937Z,5.63
2018-09-25T10:40:12.004Z,5.73
2018-09-25T10:42:45.755Z,6.33
2018-09-25T10:45:19.533Z,7.30
2018-09-25T10:47:53.304Z,6.70
2018-09-25T10:50:27.141Z,7.37
2018-09-25T10:53:01.038Z,3.90
2018-09-25T10:55:34.862Z,3.87
2018-09-25T10:58:08.650Z,2.93
2018-09-25T11:00:42.510Z,7.40
2018-09-25T11:03:16.476Z,4.27
2018-09-25T11:05:50.097Z,5.27
2018-09-25T11:08:23.934Z,3.23
2018-09-25T11:10:57.736Z,6.30
2018-09-25T11:13:31.335Z,2.63
2018-09-25T11:16:05.526Z,3.17
2018-09-25T11:18:39.260Z,6.53
2018-09-25T11:21:13.021Z,5.90
2018-09-25T11:23:46.727Z,6.30
2018-09-25T11:29:02.919Z,4.43
2018-09-25T11:31:36.705Z,4.63
2018-09-25T11:34:10.532Z,4.23
2018-09-25T11:36:44.104Z,6.67
2018-09-25T11:39:17.730Z,6.20
2018-09-25T11:41:51.418Z,2.60
2018-09-25T11:44:24.982Z,4.50
2018-09-25T11:46:58.684Z,3.63
2018-09-25T11:49:32.303Z,2.43
2018-09-25T11:52:06.183Z,3.83
2018-09-25T11:54:40.132Z,2.43
2018-09-25T11:57:14.022Z,2.60
2018-09-25T11:59:47.850Z,2.60
2018-09-25T12:02:21.670Z,4.33
2018-09-25T12:04:55.849Z,3.37
2018-09-25T12:07:29.814Z,3.33
2018-09-25T12:10:03.617Z,3.43
2018-09-25T12:12:37.653Z,2.87
2018-09-25T12:15:11.623Z,2.63
2018-09-25T12:17:45.435Z,4.03
2018-09-25T12:20:19.222Z,3.57
2018-09-25T12:22:53.223Z,2.90
2018-09-25T12:25:26.792Z,3.27
2018-09-25T12:28:00.663Z,1.67
2018-09-25T12:30:34.641Z,4.13
2018-09-25T12:33:08.569Z,8.53
2018-09-25T12:35:42.198Z,2.20
2018-09-25T12:38:15.946Z,16.00
2018-09-25T12:40:49.711Z,7.30
2018-09-25T12:43:23.464Z,7.63
2018-09-25T12:45:57.284Z,3.90
2018-09-25T12:48:31.412Z,3.83
2018-09-25T12:51:05.541Z,3.60
2018-09-25T12:53:39.034Z,4.70
2018-09-25T12:56:12.978Z,7.60
2018-09-25T12:58:46.784Z,6.23
2018-09-25T13:01:20.680Z,5.57
2018-09-25T13:03:54.309Z,2.13
2018-09-25T13:06:28.577Z,7.87
2018-09-25T13:09:02.410Z,2.93
2018-09-25T13:11:36.182Z,5.63
2018-09-25T13:14:10.127Z,3.13
2018-09-25T13:16:44.119Z,2.87
2018-09-25T13:19:17.832Z,4.00
2018-09-25T13:21:51.669Z,2.53
2018-09-25T13:24:25.798Z,3.53
2018-09-25T13:26:59.587Z,5.00
2018-09-25T13:29:33.200Z,3.63
2018-09-25T13:32:06.899Z,3.20
2018-09-25T13:34:40.440Z,2.37
2018-09-25T13:37:14.167Z,4.27
2018-09-25T13:39:48.038Z,3.03
2018-09-25T13:42:21.504Z,3.30
2018-09-25T13:44:55.066Z,6.57
2018-09-25T13:47:28.950Z,3.23
2018-09-25T13:50:02.651Z,6.87
2018-09-25T13:52:36.496Z,6.13
2018-09-25T13:55:10.325Z,4.83
2018-09-25T13:57:44.099Z,4.87
2018-09-25T14:00:17.718Z,3.03
2018-09-25T14:02:51.514Z,2.17
2018-09-25T14:05:25.446Z,7.70
2018-09-25T14:07:59.112Z,3.07
2018-09-25T14:10:32.964Z,4.13
2018-09-25T14:13:06.825Z,2.03
2018-09-25T14:15:40.591Z,3.77
2018-09-25T14:18:14.711Z,4.00
2018-09-25T14:20:48.620Z,5.20
2018-09-25T14:23:22.765Z,2.27
2018-09-25T14:25:56.694Z,4.53
2018-09-25T14:28:30.623Z,2.67
2018-09-25T14:31:04.506Z,3.97
2018-09-25T14:33:38.340Z,2.63
2018-09-25T14:36:12.295Z,2.50
2018-09-25T14:38:47.152Z,4.23
2018-09-25T14:41:20.870Z,3.70
2018-09-25T14:43:54.878Z,1.40
2018-09-25T14:46:28.837Z,3.43
2018-09-25T14:49:02.767Z,4.00
2018-09-25T14:51:36.934Z,4.63
2018-09-25T14:54:10.779Z,3.20
2018-09-25T14:56:44.495Z,3.00
2018-09-25T14:59:18.544Z,10.37
2018-09-25T15:01:52.336Z,7.87
2018-09-25T15:04:25.940Z,4.60
2018-09-25T15:06:59.935Z,2.63
2018-09-25T15:09:33.555Z,2.40
2018-09-25T15:12:07.370Z,2.93
2018-09-25T15:14:41.065Z,4.20
2018-09-25T15:17:14.985Z,2.50
2018-09-25T15:19:48.868Z,2.17
2018-09-25T15:22:22.737Z,3.87
2018-09-25T15:24:57.842Z,2.87
2018-09-25T15:27:31.723Z,4.30
2018-09-25T15:30:05.365Z,1.80
2018-09-25T15:32:39.479Z,4.80
2018-09-25T15:35:13.379Z,1.90
2018-09-25T15:37:46.958Z,4.17
2018-09-25T15:40:20.955Z,3.67
2018-09-25T15:42:54.719Z,2.90
2018-09-25T15:45:28.686Z,2.70
2018-09-25T15:48:02.397Z,2.20
2018-09-25T15:50:36.158Z,3.87
2018-09-25T15:53:09.758Z,5.77
2018-09-25T15:55:43.780Z,2.17
2018-09-25T15:58:17.451Z,1.67
2018-09-25T16:00:51.260Z,4.47
2018-09-25T16:03:24.874Z,3.80
2018-09-25T16:05:58.665Z,4.40
2018-09-25T16:08:32.778Z,5.57
2018-09-25T16:11:06.472Z,18.80
2018-09-25T16:13:39.926Z,14.17
2018-09-25T16:16:13.805Z,21.63
2018-09-25T16:18:47.978Z,49.70
2018-09-25T16:21:21.624Z,22.00
2018-09-25T16:23:55.164Z,13.17
2018-09-25T16:26:28.888Z,27.43
2018-09-25T16:29:02.770Z,6.77
2018-09-25T16:31:36.299Z,54.17
2018-09-25T16:34:09.734Z,125.80
2018-09-25T16:36:43.665Z,124.60
2018-09-25T16:39:17.582Z,48.37
2018-09-25T16:42:15.953Z,115.07
2018-09-25T16:45:10.829Z,28.70
2018-09-25T16:47:44.880Z,13.63
2018-09-25T16:50:20.092Z,13.03
2018-09-25T16:52:53.761Z,6.97
2018-09-25T16:55:48.571Z,11.13
2018-09-25T16:58:22.129Z,9.47
2018-09-25T17:00:55.727Z,12.60
2018-09-25T17:08:38.946Z,6.03
2018-09-25T17:11:12.429Z,3.33
2018-09-25T17:13:45.962Z,3.07
2018-09-25T17:16:19.804Z,6.83
2018-09-25T17:18:53.538Z,4.43
2018-09-25T17:21:27.086Z,4.93
2018-09-25T17:24:00.682Z,3.10
2018-09-25T17:26:34.275Z,3.50
2018-09-25T17:29:08.085Z,4.80
2018-09-25T17:31:41.730Z,5.77
2018-09-25T17:34:15.286Z,7.30
2018-09-25T17:36:48.864Z,4.67
2018-09-25T17:39:22.496Z,7.23
2018-09-25T17:41:56.093Z,3.30
2018-09-25T17:44:29.830Z,4.33
2018-09-25T17:47:03.388Z,1.77
2018-09-25T17:49:36.889Z,7.90
2018-09-25T17:52:10.579Z,5.40
2018-09-25T17:54:44.191Z,3.30
2018-09-25T17:57:18.047Z,3.23
2018-09-25T17:59:51.620Z,4.20
2018-09-25T18:02:25.289Z,2.57
2018-09-25T18:04:58.883Z,4.50
2018-09-25T18:10:06.634Z,2.33
2018-09-25T18:12:40.900Z,5.57
2018-09-25T18:15:14.496Z,6.30
2018-09-25T18:17:48.146Z,4.17
2018-09-25T18:20:21.749Z,9.90
2018-09-25T18:22:55.354Z,4.63
2018-09-25T18:25:29.205Z,5.43
2018-09-25T18:28:03.043Z,3.30
2018-09-25T18:30:36.905Z,2.83
2018-09-25T18:33:10.612Z,2.93
2018-09-25T18:35:44.186Z,6.20
2018-09-25T18:38:17.943Z,6.47
2018-09-25T18:40:51.510Z,3.30
2018-09-25T18:43:25.279Z,5.13
2018-09-25T18:45:58.731Z,4.03
2018-09-25T18:48:32.443Z,3.67
2018-09-25T18:51:06.044Z,3.97
2018-09-25T18:53:39.738Z,4.73
2018-09-25T18:56:13.546Z,4.50
2018-09-25T18:58:47.188Z,4.50
2018-09-25T19:01:21.059Z,4.00
2018-09-25T19:03:54.806Z,5.30
2018-09-25T19:06:28.291Z,2.30
2018-09-25T19:09:01.772Z,5.20
2018-09-25T19:11:35.322Z,4.27
2018-09-25T19:14:09.005Z,4.47
2018-09-25T19:16:42.662Z,3.37
2018-09-25T19:19:16.360Z,3.30
2018-09-25T19:21:49.993Z,4.17
2018-09-25T19:24:23.669Z,2.97
2018-09-25T19:26:57.322Z,4.77
2018-09-25T19:29:31.114Z,3.17
2018-09-25T19:32:04.937Z,5.33
2018-09-25T19:34:38.454Z,3.67
2018-09-25T19:37:12.184Z,3.90
2018-09-25T19:39:45.807Z,4.20
2018-09-25T19:42:19.368Z,5.13
2018-09-25T19:44:53.024Z,4.47
2018-09-25T19:47:26.475Z,4.07
2018-09-25T19:50:00.187Z,5.93
2018-09-25T19:52:34.021Z,7.27
2018-09-25T19:55:07.629Z,5.47
2018-09-25T19:57:41.374Z,5.97
2018-09-25T20:00:14.950Z,7.40
2018-09-25T20:02:49.118Z,6.90
2018-09-25T20:05:23.103Z,5.33
2018-09-25T20:07:56.961Z,6.80
2018-09-25T20:10:30.863Z,3.60
2018-09-25T20:13:04.834Z,6.43
2018-09-25T20:15:38.688Z,6.87
2018-09-25T20:18:12.426Z,6.67
2018-09-25T20:20:46.208Z,4.63
2018-09-25T20:23:19.965Z,5.80
2018-09-25T20:25:53.739Z,6.23
2018-09-25T20:28:27.496Z,5.67
2018-09-25T20:31:01.141Z,3.90
2018-09-25T20:33:34.851Z,4.27
2018-09-25T20:36:08.425Z,5.40
2018-09-25T20:38:42.295Z,7.80
2018-09-25T20:41:16.009Z,7.17
2018-09-25T20:43:49.614Z,7.70
2018-09-25T20:46:23.425Z,4.60
2018-09-25T20:48:57.047Z,5.17
2018-09-25T20:51:30.642Z,5.83
2018-09-25T20:54:04.497Z,4.57
2018-09-25T20:56:38.266Z,6.43
2018-09-25T20:59:11.859Z,5.00
2018-09-25T21:01:45.434Z,4.77
2018-09-25T21:04:19.200Z,4.47
2018-09-25T21:06:52.787Z,5.37
2018-09-25T21:09:26.643Z,4.10
2018-09-25T21:12:00.197Z,4.67
2018-09-25T21:14:33.928Z,5.40
2018-09-25T21:17:07.565Z,4.33
2018-09-25T21:19:41.312Z,4.90
2018-09-25T21:22:15.042Z,5.50
2018-09-25T21:24:48.776Z,6.10
2018-09-25T21:27:22.445Z,5.90
2018-09-25T21:29:56.054Z,7.63
2018-09-25T21:32:29.540Z,7.73
2018-09-25T21:35:03.182Z,4.00
2018-09-25T21:37:36.709Z,3.90
2018-09-25T21:40:10.472Z,6.43
2018-09-25T21:42:44.142Z,4.70
2018-09-25T21:45:17.755Z,6.40
2018-09-25T21:47:51.499Z,15.00
2018-09-25T21:50:25.276Z,10.67
2018-09-25T21:52:58.811Z,14.50
2018-09-25T21:55:32.314Z,7.07
2018-09-25T21:58:06.067Z,9.80
2018-09-25T22:00:39.798Z,10.87
2018-09-25T22:03:13.312Z,8.93
2018-09-25T22:05:47.118Z,7.50
2018-09-25T22:08:20.885Z,11.93
2018-09-25T22:10:54.700Z,8.83
2018-09-25T22:13:28.392Z,9.77
2018-09-25T22:16:02.190Z,6.63
2018-09-25T22:18:35.839Z,14.47
2018-09-25T22:21:09.509Z,15.67
2018-09-25T22:23:43.105Z,16.47
2018-09-25T22:26:16.703Z,14.00
2018-09-25T22:28:50.346Z,9.43
2018-09-25T22:31:24.058Z,12.23
2018-09-25T22:33:57.694Z,13.47
2018-09-25T22:36:31.432Z,13.10
2018-09-25T22:39:05.171Z,10.60
2018-09-25T22:41:38.906Z,10.97
2018-09-25T22:44:12.558Z,13.97
2018-09-25T22:46:46.454Z,12.93
2018-09-25T22:49:20.239Z,12.80
2018-09-25T22:51:53.920Z,12.83
2018-09-25T22:54:27.563Z,14.30
2018-09-25T22:57:01.374Z,11.73
2018-09-25T22:59:35.069Z,10.73
2018-09-25T23:02:08.682Z,14.10
2018-09-25T23:04:42.333Z,13.53
2018-09-25T23:07:16.184Z,17.00
2018-09-25T23:09:49.945Z,14.53
2018-09-25T23:12:23.775Z,9.43
2018-09-25T23:14:57.402Z,10.53
2018-09-25T23:17:31.153Z,12.33
2018-09-25T23:20:04.892Z,9.83
2018-09-25T23:22:38.664Z,14.23
2018-09-25T23:25:12.342Z,10.40
2018-09-25T23:27:46.187Z,11.97
2018-09-25T23:30:19.929Z,8.37
2018-09-25T23:32:53.591Z,7.73
2018-09-25T23:35:27.433Z,7.77
2018-09-25T23:38:01.103Z,7.03
2018-09-25T23:40:34.778Z,7.27
2018-09-25T23:43:07.373Z,8.80
2018-09-25T23:45:40.973Z,6.67
2018-09-25T23:48:18.701Z,8.60
2018-09-25T23:50:54.768Z,6.47
2018-09-25T23:53:32.341Z,9.23
2018-09-25T23:56:06.019Z,6.73
2018-09-25T23:58:36.512Z,8.43
